Flight Track Log - Related Links

Times and Time Zones

All times are in EDT time to prevent confusion due to time zone crossing. See the DAL4165 flight status page for this flight to view local times or setup timezone preferences in your user account.


Time Position Orientation Groundspeed Altitude Reporting Facility
EDT Latitude Longitude Course Direction KTS MPH feet Rate Location/Type
Wed 07:11:31 PM 35.4583 -97.5717 17° North 231 266 3,600  Level Fort Worth Center
Wed 07:12:51 PM 35.5167 -97.4953 47° Northeast 283 326 6,100 2,014 Climbing Fort Worth Center
Wed 07:13:00 PM 35.3959 -97.1745 85° East  Level FlightAware Approximate
Wed 07:13:51 PM 35.5022 -97.4008 101° East 265 305 8,300  Level Fort Worth Center
Wed 07:14:00 PM 35.4001 -97.0327 90° East  Level FlightAware Approximate
Wed 07:14:51 PM 35.4875 -97.2989 100° East 279 321 10,900  Level Fort Worth Center
Wed 07:15:00 PM 35.4000 -96.8906 90° East  Level FlightAware Approximate
Wed 07:15:51 PM 35.4853 -97.1764 91° East 308 354 12,300  Level Fort Worth Center
Wed 07:16:51 PM 35.4808 -97.0517 92° East 340 391 14,500 1,950 Climbing Fort Worth Center
Wed 07:17:51 PM 35.4742 -96.9267 94° East 352 405 16,200 1,600 Climbing Fort Worth Center
Wed 07:18:51 PM 35.4694 -96.8019 93° East 363 418 17,700 1,500 Climbing Fort Worth Center
Wed 07:19:51 PM 35.4644 -96.6719 93° East 368 423 19,200 1,550 Climbing Fort Worth Center
Wed 07:20:51 PM 35.4594 -96.5344 93° East 385 443 20,800 1,600 Climbing Fort Worth Center
Wed 07:21:51 PM 35.4522 -96.3994 94° East 390 449 22,400 1,350 Climbing Fort Worth Center
Wed 07:22:51 PM 35.4469 -96.2592 93° East 395 455 23,500 1,200 Climbing Fort Worth Center
Wed 07:23:51 PM 35.4414 -96.1192 93° East 406 467 24,800 950 Climbing Fort Worth Center
Wed 07:24:51 PM 35.4333 -95.9742 94° East 411 473 25,400 560 Climbing Fort Worth Center
Wed 07:26:53 PM 35.4225 -95.6564 92° East 429 494 26,500 527 Climbing Memphis Center
Wed 07:27:53 PM 35.4128 -95.4903 94° East 460 529 27,000 800 Climbing Memphis Center
Wed 07:28:53 PM 35.4050 -95.3242 93° East 482 555 28,100 1,050 Climbing Memphis Center
Wed 07:29:53 PM 35.3969 -95.1556 93° East 487 560 29,100 850 Climbing Memphis Center
Wed 07:30:53 PM 35.3867 -94.9844 94° East 492 566 29,800 650 Climbing Memphis Center
Wed 07:31:53 PM 35.3783 -94.8108 93° East 503 579 30,400 600 Climbing Memphis Center
Wed 07:32:53 PM 35.3681 -94.6344 94° East 509 586 31,000 300 Climbing Memphis Center
Wed 07:33:53 PM 35.3572 -94.4533 94° East 524 603 31,000  Level Memphis Center
Wed 07:34:54 PM 35.3444 -94.2669 95° East 540 621 31,000  Level Memphis Center
Wed 07:35:54 PM 35.3336 -94.0781 94° East 546 628 31,000  Level Memphis Center
Wed 07:36:53 PM 35.3225 -93.8892 94° East 551 634 31,000  Level Memphis Center
Wed 07:37:54 PM 35.3086 -93.7081 95° East 551 634 31,000  Level Memphis Center
Wed 07:38:54 PM 35.2989 -93.5244 94° East 546 628 31,000  Level Memphis Center
Wed 07:39:53 PM 35.2886 -93.3458 94° East 540 621 31,000  Level Memphis Center
Wed 07:40:53 PM 35.2764 -93.1600 95° East 540 621 31,000  Level Memphis Center
Wed 07:41:53 PM 35.2636 -92.9739 95° East 550 633 31,000  Level Memphis Center
Wed 07:42:54 PM 35.2528 -92.7931 94° East 542 624 31,000  Level Memphis Center
Wed 07:43:53 PM 35.2333 -92.6017 97° East 547 629 31,000  Level Memphis Center
Wed 07:44:53 PM 35.2197 -92.4233 95° East 541 623 31,000  Level Memphis Center
Wed 07:45:53 PM 35.2081 -92.2403 94° East 541 623 31,000  Level Memphis Center
Wed 07:46:53 PM 35.1939 -92.0569 95° East 541 623 31,000  Level Memphis Center
Wed 07:47:53 PM 35.1797 -91.8764 95° East 541 623 31,000  Level Memphis Center
Wed 07:48:53 PM 35.1669 -91.7058 95° East 548 631 31,000  Level Memphis Center
Wed 07:49:53 PM 35.1500 -91.5253 96° East 548 631 31,000  Level Memphis Center
Wed 07:50:53 PM 35.1392 -91.3447 94° East 540 621 31,000  Level Memphis Center
Wed 07:51:53 PM 35.1217 -91.1644 97° East 534 615 31,000  Level Memphis Center
Wed 07:52:53 PM 35.1081 -90.9839 95° East 534 615 31,000 -347 Level Memphis Center
Wed 07:53:54 PM 35.0922 -90.8064 96° East 540 621 30,300 -900 Descending Memphis Center
Wed 07:54:53 PM 35.0781 -90.6386 96° East 511 588 29,200 -655 Descending Memphis Center
Wed 07:55:53 PM 35.0617 -90.4764 97° East 493 567 29,000 -100 Descending Memphis Center
Wed 07:56:53 PM 35.0450 -90.2936 96° East 493 567 29,000  Level Memphis Center
Wed 07:57:53 PM 35.0300 -90.1289 96° East 493 567 29,000  Level Memphis Center
Wed 07:58:54 PM 35.0150 -89.9642 96° East 488 562 29,000  Level Memphis Center
Wed 07:59:53 PM 34.9936 -89.7994 99° East 482 555 29,000  Level Memphis Center
Wed 08:00:53 PM 34.9678 -89.6322 101° East 489 563 29,000  Level Memphis Center
Wed 08:01:53 PM 34.9439 -89.4906 102° East 489 563 29,000  Level Memphis Center
Wed 08:02:53 PM 34.9197 -89.3289 100° East 479 551 29,000  Level Memphis Center
Wed 08:03:53 PM 34.8931 -89.1722 102° East 479 551 29,000  Level Memphis Center
Wed 08:04:53 PM 34.8706 -89.0106 100° East 485 558 29,000  Level Memphis Center
Wed 08:05:53 PM 34.8436 -88.8439 101° East 485 558 29,000  Level Memphis Center
Wed 08:06:53 PM 34.8164 -88.6647 100° East 490 564 29,000  Level Memphis Center
Wed 08:07:53 PM 34.7911 -88.5061 101° East 485 558 29,000  Level Memphis Center
Wed 08:08:53 PM 34.7703 -88.3700 101° East 471 542 29,000 -50 Level Memphis Center
Wed 08:09:53 PM 34.7447 -88.2139 101° East 471 542 28,900 -50 Descending Memphis Center
Wed 08:10:53 PM 34.7164 -88.0353 101° East 486 559 28,900  Level Memphis Center
Wed 08:11:53 PM 34.6925 -87.8792 100° East 481 554 28,900  Level Memphis Center
Wed 08:12:53 PM 34.6642 -87.7211 102° East 476 548 28,900  Level Memphis Center
Wed 08:13:53 PM 34.6400 -87.5678 101° East 476 548 28,900  Level Memphis Center
Wed 08:16:05 PM 34.5833 -87.2431 102° East 473 544 28,900  Level Atlanta Center
Wed 08:17:05 PM 34.5539 -87.0831 103° East 473 544 28,900  Level Atlanta Center
Wed 08:18:05 PM 34.5222 -86.9281 104° East 473 544 28,900  Level Atlanta Center
Wed 08:19:05 PM 34.4842 -86.7578 105° East 473 544 28,900 -50 Level Atlanta Center
Wed 08:20:05 PM 34.4500 -86.6006 105° East 473 544 28,800  Descending Atlanta Center
Wed 08:21:05 PM 34.4156 -86.4461 105° East 473 544 28,900 -200 Climbing Atlanta Center
Wed 08:22:05 PM 34.3811 -86.2939 105° East 478 550 28,400 50 Descending Atlanta Center
Wed 08:23:05 PM 34.3483 -86.1397 104° East 478 550 29,000 -1,900 Climbing Atlanta Center
Wed 08:24:05 PM 34.3153 -85.9931 105° East 473 544 24,600 -3,150 Descending Atlanta Center
Wed 08:25:05 PM 34.2800 -85.8439 106° East 462 532 22,700 -1,950 Descending Atlanta Center
Wed 08:26:05 PM 34.2444 -85.6972 106° East 457 526 20,700 -1,800 Descending Atlanta Center
Wed 08:27:05 PM 34.2147 -85.5686 106° East 452 520 19,100 -1,700 Descending Atlanta Center
Wed 08:28:05 PM 34.1808 -85.4275 106° East 442 509 17,300 -1,850 Descending Atlanta Center
Wed 08:29:05 PM 34.1492 -85.2864 105° East 442 509 15,400 -1,750 Descending Atlanta Center
Wed 08:30:05 PM 34.1189 -85.1578 106° East 420 483 13,800 -1,200 Descending Atlanta Center
Wed 08:31:05 PM 34.0822 -85.0494 112° Southeast 374 430 13,000 -1,100 Descending Atlanta Center
Wed 08:32:05 PM 34.0286 -84.9661 128° Southeast 311 358 11,600 -1,350 Descending Atlanta Center
Wed 08:33:05 PM 33.9772 -84.8906 129° Southeast 306 352 10,300 -1,200 Descending Atlanta Center
Wed 08:34:05 PM 33.9169 -84.8222 137° Southeast 292 336 9,200 -1,200 Descending Atlanta Center
Wed 08:35:05 PM 33.8356 -84.8192 178° South 263 303 7,900 -1,360 Descending Atlanta Center
Wed 08:35:20 PM 33.8167 -84.8167 174° South 281 323 7,500 -1,920 Descending Atlanta TRACON
Wed 08:36:20 PM 33.7333 -84.8000 171° South 270 311 5,500 -1,250 Descending Atlanta TRACON
Wed 08:37:20 PM 33.6833 -84.7667 151° Southeast 226 260 5,000 -250 Descending Atlanta TRACON
Wed 08:38:20 PM 33.6667 -84.7000 107° East 215 247 5,000 -250 Level Atlanta TRACON
Wed 08:39:20 PM 33.6500 -84.6333 107° East 194 223 4,500 -893 Descending Atlanta TRACON
Wed 08:40:21 PM 33.6500 -84.5833 90° East 191 220 3,200 -1,279 Descending Atlanta TRACON

Login

Don't have an account? Register now (free) for customized features, flight alerts, and more!